createdAt,value
2019-01-21T00:00:59.996Z,28.33
2019-01-21T00:03:14.621Z,28.43
2019-01-21T00:05:23.638Z,28.63
2019-01-21T00:07:34.443Z,27.77
2019-01-21T00:09:45.265Z,28.90
2019-01-21T00:11:56.058Z,28.07
2019-01-21T00:14:06.882Z,29.67
2019-01-21T00:16:17.680Z,28.07
2019-01-21T00:18:28.501Z,27.17
2019-01-21T00:20:39.322Z,27.80
2019-01-21T00:22:50.136Z,27.53
2019-01-21T00:25:00.949Z,26.70
2019-01-21T00:27:11.746Z,27.47
2019-01-21T00:29:22.569Z,26.57
2019-01-21T00:31:33.363Z,27.67
2019-01-21T00:33:44.185Z,24.43
2019-01-21T00:35:55.116Z,24.50
2019-01-21T00:38:05.905Z,26.53
2019-01-21T00:40:16.822Z,25.97
2019-01-21T00:42:27.619Z,25.93
2019-01-21T00:44:38.434Z,27.63
2019-01-21T00:46:49.243Z,26.67
2019-01-21T00:49:00.062Z,26.97
2019-01-21T00:51:10.865Z,25.20
2019-01-21T00:53:21.659Z,27.93
2019-01-21T00:55:32.488Z,25.33
2019-01-21T00:57:43.404Z,25.13
2019-01-21T00:59:54.232Z,26.27
2019-01-21T01:02:05.026Z,27.10
2019-01-21T01:04:16.106Z,23.80
2019-01-21T01:06:26.868Z,24.13
2019-01-21T01:08:37.657Z,23.60
2019-01-21T01:10:48.487Z,24.63
2019-01-21T01:12:59.306Z,25.60
2019-01-21T01:15:51.762Z,22.57
2019-01-21T01:18:02.853Z,23.90
2019-01-21T01:20:55.313Z,23.90
2019-01-21T01:23:06.104Z,24.43
2019-01-21T01:25:16.930Z,23.30
2019-01-21T01:27:27.744Z,25.67
2019-01-21T01:29:38.540Z,22.83
2019-01-21T01:31:49.355Z,24.33
2019-01-21T01:34:00.164Z,23.73
2019-01-21T01:36:10.997Z,24.63
2019-01-21T01:38:21.791Z,26.53
2019-01-21T01:40:32.599Z,24.03
2019-01-21T01:42:43.604Z,23.93
2019-01-21T01:44:54.405Z,24.80
2019-01-21T01:47:05.320Z,24.67
2019-01-21T01:49:16.117Z,23.47
2019-01-21T01:51:27.029Z,23.47
2019-01-21T01:53:37.821Z,24.30
2019-01-21T01:55:48.640Z,25.03
2019-01-21T01:57:59.689Z,25.50
2019-01-21T02:00:52.123Z,24.40
2019-01-21T02:03:44.604Z,26.57
2019-01-21T02:05:55.503Z,22.50
2019-01-21T02:08:06.406Z,24.47
2019-01-21T02:10:17.299Z,24.10
2019-01-21T02:12:28.301Z,24.17
2019-01-21T02:14:39.123Z,25.80
2019-01-21T02:16:49.939Z,24.97
2019-01-21T02:19:00.758Z,25.00
2019-01-21T02:21:11.660Z,26.77
2019-01-21T02:24:04.151Z,25.13
2019-01-21T02:26:56.596Z,24.87
2019-01-21T02:29:49.053Z,24.23
2019-01-21T02:32:39.575Z,24.60
2019-01-21T02:35:30.140Z,24.53
2019-01-21T02:38:20.667Z,25.23
2019-01-21T02:41:13.128Z,23.73
2019-01-21T02:44:05.624Z,22.73
2019-01-21T02:46:58.066Z,22.80
2019-01-21T02:49:50.517Z,24.40
2019-01-21T02:52:41.067Z,24.27
2019-01-21T02:55:33.510Z,24.47
2019-01-21T02:58:24.360Z,24.47
2019-01-21T03:00:47.780Z,21.90
2019-01-21T03:03:40.246Z,22.67
2019-01-21T03:06:32.766Z,21.53
2019-01-21T03:09:25.206Z,24.33
2019-01-21T03:12:15.748Z,25.50
2019-01-21T03:15:08.205Z,24.47
2019-01-21T03:18:07.783Z,22.63
2019-01-21T03:20:35.120Z,23.13
2019-01-21T03:23:25.677Z,23.50
2019-01-21T03:26:16.228Z,23.70
2019-01-21T03:29:06.805Z,23.33
2019-01-21T03:31:57.366Z,23.03
2019-01-21T03:34:47.934Z,23.50
2019-01-21T03:37:38.476Z,22.30
2019-01-21T03:40:29.008Z,23.50
2019-01-21T03:43:21.471Z,21.60
2019-01-21T03:46:12.033Z,23.43
2019-01-21T03:49:04.500Z,22.60
2019-01-21T03:51:55.062Z,21.93
2019-01-21T03:54:47.512Z,19.30
2019-01-21T03:57:39.994Z,21.27
2019-01-21T04:00:32.434Z,18.07
2019-01-21T04:03:24.936Z,20.60
2019-01-21T04:06:15.453Z,20.27
2019-01-21T04:09:06.024Z,21.07
2019-01-21T04:11:56.553Z,21.27
2019-01-21T04:14:49.011Z,21.63
2019-01-21T04:17:39.563Z,22.67
2019-01-21T04:20:31.750Z,21.93
2019-01-21T04:23:22.356Z,22.13
2019-01-21T04:26:12.904Z,20.67
2019-01-21T04:29:05.683Z,21.40
2019-01-21T04:31:56.226Z,21.37
2019-01-21T04:34:47.094Z,20.43
2019-01-21T04:37:39.554Z,21.23
2019-01-21T04:40:30.109Z,21.20
2019-01-21T04:43:20.671Z,21.73
2019-01-21T04:46:13.164Z,23.00
2019-01-21T04:49:03.744Z,22.30
2019-01-21T04:51:56.182Z,22.37
2019-01-21T04:54:48.724Z,22.13
2019-01-21T04:57:39.277Z,22.13
2019-01-21T05:00:29.841Z,20.83
2019-01-21T05:03:20.401Z,20.70
2019-01-21T05:06:10.954Z,22.17
2019-01-21T05:09:01.512Z,21.77
2019-01-21T05:11:52.063Z,23.27
2019-01-21T05:14:43.952Z,21.03
2019-01-21T05:17:36.494Z,21.47
2019-01-21T05:20:28.961Z,21.90
2019-01-21T05:23:19.512Z,21.80
2019-01-21T05:26:11.978Z,20.97
2019-01-21T05:29:02.530Z,20.67
2019-01-21T05:31:54.995Z,22.10
2019-01-21T05:34:45.541Z,21.37
2019-01-21T05:37:36.084Z,21.50
2019-01-21T05:40:26.628Z,21.50
2019-01-21T05:43:19.120Z,21.27
2019-01-21T05:46:09.633Z,22.53
2019-01-21T05:49:00.224Z,20.70
2019-01-21T05:51:50.793Z,20.97
2019-01-21T05:54:41.329Z,21.40
2019-01-21T05:57:31.918Z,18.57
2019-01-21T06:00:24.371Z,20.90
2019-01-21T06:03:16.866Z,21.97
2019-01-21T06:06:07.407Z,21.43
2019-01-21T06:08:59.920Z,22.20
2019-01-21T06:11:52.324Z,21.47
2019-01-21T06:14:42.908Z,21.97
2019-01-21T06:17:35.344Z,23.37
2019-01-21T06:20:25.907Z,22.03
2019-01-21T06:23:18.354Z,20.80
2019-01-21T06:26:08.917Z,21.17
2019-01-21T06:29:01.395Z,20.00
2019-01-21T06:31:51.937Z,21.60
2019-01-21T06:34:42.520Z,29.13
2019-01-21T06:37:33.054Z,20.17
2019-01-21T06:40:25.535Z,20.53
2019-01-21T06:43:16.076Z,19.33
2019-01-21T06:46:08.539Z,20.07
2019-01-21T06:49:04.571Z,19.83
2019-01-21T06:51:51.543Z,20.47
2019-01-21T06:54:44.000Z,19.77
2019-01-21T06:57:36.450Z,19.43
2019-01-21T07:00:26.996Z,19.53
2019-01-21T07:03:19.531Z,23.30
2019-01-21T07:06:12.000Z,21.80
2019-01-21T07:09:04.450Z,21.77
2019-01-21T07:11:56.929Z,21.00
2019-01-21T07:14:47.479Z,21.10
2019-01-21T07:17:39.991Z,20.97
2019-01-21T07:20:32.476Z,19.67
2019-01-21T07:23:24.957Z,20.43
2019-01-21T07:26:15.533Z,20.17
2019-01-21T07:29:06.102Z,19.90
2019-01-21T07:31:58.562Z,19.73
2019-01-21T07:34:49.110Z,19.03
2019-01-21T07:37:39.669Z,19.40
2019-01-21T07:40:30.224Z,20.10
2019-01-21T07:43:20.784Z,19.17
2019-01-21T07:46:11.332Z,18.57
2019-01-21T07:49:03.803Z,19.97
2019-01-21T07:57:39.116Z,18.63
2019-01-21T08:00:31.582Z,19.40
2019-01-21T08:02:55.955Z,19.67
2019-01-21T08:05:46.543Z,18.97
2019-01-21T08:08:39.002Z,19.97
2019-01-21T08:11:31.477Z,18.57
2019-01-21T08:14:23.947Z,18.83
2019-01-21T08:17:16.424Z,18.70
2019-01-21T08:20:08.909Z,21.30
2019-01-21T08:22:59.451Z,20.90
2019-01-21T08:25:50.045Z,20.83
2019-01-21T08:28:42.495Z,18.93
2019-01-21T08:31:34.953Z,19.63
2019-01-21T08:34:27.422Z,20.30
2019-01-21T08:37:19.908Z,20.60
2019-01-21T08:40:12.386Z,21.10
2019-01-21T08:43:02.929Z,20.33
2019-01-21T08:45:55.422Z,19.87
2019-01-21T08:48:45.966Z,21.40
2019-01-21T08:51:38.451Z,18.67
2019-01-21T08:54:30.902Z,18.47
2019-01-21T08:57:23.360Z,18.00
2019-01-21T09:00:15.790Z,18.00
2019-01-21T09:03:08.297Z,19.13
2019-01-21T09:06:00.746Z,18.70
2019-01-21T09:08:53.219Z,18.67
2019-01-21T09:11:43.782Z,19.00
2019-01-21T09:14:36.243Z,18.93
2019-01-21T09:17:28.709Z,17.93
2019-01-21T09:20:21.193Z,18.07
2019-01-21T09:23:13.636Z,16.67
2019-01-21T09:26:06.083Z,19.33
2019-01-21T09:28:56.639Z,18.97
2019-01-21T09:31:49.082Z,17.57
2019-01-21T09:34:39.633Z,18.80
2019-01-21T09:37:30.162Z,17.53
2019-01-21T09:40:22.650Z,19.77
2019-01-21T09:43:13.242Z,18.50
2019-01-21T09:46:05.675Z,18.70
2019-01-21T09:48:16.285Z,20.50
2019-01-21T09:53:19.935Z,19.77
2019-01-21T09:55:30.874Z,18.20
2019-01-21T09:57:41.776Z,20.47
2019-01-21T09:59:52.808Z,19.73
2019-01-21T10:02:45.297Z,19.47
2019-01-21T10:05:37.747Z,21.07
2019-01-21T10:08:30.190Z,18.13
2019-01-21T10:11:22.645Z,18.97
2019-01-21T10:14:13.188Z,18.40
2019-01-21T10:17:05.685Z,20.80
2019-01-21T10:19:58.136Z,19.63
2019-01-21T10:22:30.726Z,20.33
2019-01-21T10:25:23.191Z,20.17
2019-01-21T10:28:15.635Z,19.37
2019-01-21T10:31:08.121Z,18.20
2019-01-21T10:33:58.665Z,19.90
2019-01-21T10:36:51.129Z,20.33
2019-01-21T10:39:43.579Z,19.60
2019-01-21T10:42:34.139Z,19.50
2019-01-21T10:45:26.573Z,20.87
2019-01-21T10:48:19.037Z,20.70
2019-01-21T10:51:09.580Z,19.37
2019-01-21T10:54:00.139Z,20.00
2019-01-21T10:56:52.583Z,20.60
2019-01-21T10:59:43.158Z,20.90
2019-01-21T11:02:15.781Z,20.50
2019-01-21T11:05:08.227Z,21.10
2019-01-21T11:08:03.475Z,20.90
2019-01-21T11:10:54.033Z,21.10
2019-01-21T11:13:46.497Z,20.03
2019-01-21T11:16:38.967Z,20.17
2019-01-21T11:19:31.424Z,20.20
2019-01-21T11:22:23.862Z,19.77
2019-01-21T11:25:16.323Z,20.87
2019-01-21T11:28:08.818Z,21.13
2019-01-21T11:30:59.361Z,21.17
2019-01-21T11:33:51.856Z,20.93
2019-01-21T11:36:44.332Z,21.47
2019-01-21T11:39:36.782Z,20.93
2019-01-21T11:42:29.226Z,21.00
2019-01-21T11:45:19.791Z,21.50
2019-01-21T11:48:12.223Z,20.60
2019-01-21T11:51:04.703Z,22.20
2019-01-21T11:53:55.248Z,21.60
2019-01-21T11:56:47.723Z,21.50
2019-01-21T11:59:40.181Z,20.87
2019-01-21T12:02:32.641Z,20.27
2019-01-21T12:05:23.215Z,21.10
2019-01-21T12:08:13.753Z,21.80
2019-01-21T12:11:06.209Z,23.47
2019-01-21T12:13:58.654Z,20.83
2019-01-21T12:16:51.144Z,22.23
2019-01-21T12:19:41.689Z,21.90
2019-01-21T12:22:32.244Z,21.30
2019-01-21T12:25:24.683Z,22.37
2019-01-21T12:28:15.255Z,22.23
2019-01-21T12:31:05.787Z,23.33
2019-01-21T12:33:56.358Z,16.13
2019-01-21T12:36:48.827Z,21.00
2019-01-21T12:39:42.318Z,23.83
2019-01-21T12:42:34.776Z,22.87
2019-01-21T12:45:27.221Z,23.97
2019-01-21T12:48:19.689Z,23.93
2019-01-21T12:51:10.230Z,23.13
2019-01-21T12:54:02.707Z,22.77
2019-01-21T12:56:55.454Z,23.57
2019-01-21T12:59:47.933Z,22.97
2019-01-21T13:02:38.494Z,22.73
2019-01-21T13:05:30.962Z,23.57
2019-01-21T13:08:23.415Z,22.37
2019-01-21T13:11:13.977Z,22.43
2019-01-21T13:14:04.615Z,23.13
2019-01-21T13:16:57.095Z,23.73
2019-01-21T13:19:49.571Z,22.53
2019-01-21T13:22:40.118Z,20.63
2019-01-21T13:25:30.670Z,22.10
2019-01-21T13:28:23.109Z,22.63
2019-01-21T13:31:15.567Z,21.60
2019-01-21T13:34:06.112Z,21.70
2019-01-21T13:36:58.582Z,23.53
2019-01-21T13:39:51.050Z,22.17
2019-01-21T13:42:43.538Z,23.07
2019-01-21T13:45:34.093Z,20.97
2019-01-21T13:48:26.526Z,20.67
2019-01-21T13:51:18.989Z,21.47
2019-01-21T13:54:09.514Z,21.40
2019-01-21T13:57:00.105Z,22.47
2019-01-21T13:59:50.658Z,23.47
2019-01-21T14:02:43.150Z,22.10
2019-01-21T14:05:35.631Z,23.13
2019-01-21T14:08:28.089Z,23.37
2019-01-21T14:11:20.560Z,23.17
2019-01-21T14:14:13.015Z,20.10
2019-01-21T14:17:05.470Z,22.80
2019-01-21T14:19:57.942Z,21.63
2019-01-21T14:22:48.517Z,22.23
2019-01-21T14:25:39.070Z,23.03
2019-01-21T14:28:31.553Z,22.47
2019-01-21T14:31:22.094Z,23.30
2019-01-21T14:34:14.560Z,22.63
2019-01-21T14:37:05.105Z,23.87
2019-01-21T14:39:55.704Z,23.47
2019-01-21T14:42:48.143Z,22.87
2019-01-21T14:45:38.707Z,25.57
2019-01-21T14:48:29.301Z,22.17
2019-01-21T14:51:19.831Z,23.23
2019-01-21T14:54:10.422Z,23.27
2019-01-21T14:57:02.895Z,21.63
2019-01-21T14:59:55.362Z,23.57
2019-01-21T15:02:47.870Z,23.37
2019-01-21T15:05:40.383Z,23.20
2019-01-21T15:08:32.819Z,25.90
2019-01-21T15:11:23.355Z,21.83
2019-01-21T15:14:13.914Z,24.67
2019-01-21T15:17:06.394Z,23.33
2019-01-21T15:19:58.896Z,23.70
2019-01-21T15:22:51.335Z,24.63
2019-01-21T15:25:41.873Z,23.60
2019-01-21T15:28:14.491Z,23.40
2019-01-21T15:31:06.963Z,23.20
2019-01-21T15:33:57.618Z,21.57
2019-01-21T15:36:50.110Z,22.87
2019-01-21T15:39:42.762Z,26.47
2019-01-21T15:42:35.257Z,24.67
2019-01-21T15:45:25.824Z,23.03
2019-01-21T15:48:18.286Z,25.13
2019-01-21T15:51:08.978Z,24.83
2019-01-21T15:54:01.428Z,25.77
2019-01-21T15:56:53.918Z,24.97
2019-01-21T15:59:46.369Z,22.80
2019-01-21T16:02:37.181Z,23.80
2019-01-21T16:05:29.652Z,24.80
2019-01-21T16:08:22.145Z,22.87
2019-01-21T16:11:14.611Z,24.70
2019-01-21T16:13:46.503Z,25.50
2019-01-21T16:16:38.971Z,25.87
2019-01-21T16:19:31.435Z,23.50
2019-01-21T16:22:22.041Z,25.63
2019-01-21T16:25:14.507Z,22.50
2019-01-21T16:28:05.090Z,22.60
2019-01-21T16:30:57.602Z,22.93
2019-01-21T16:33:50.066Z,23.93
2019-01-21T16:36:42.531Z,22.37
2019-01-21T16:39:35.014Z,22.93
2019-01-21T16:42:25.563Z,22.63
2019-01-21T16:44:36.410Z,23.90
2019-01-21T16:46:47.223Z,25.77
2019-01-21T16:48:58.054Z,24.50
2019-01-21T16:51:08.838Z,23.87
2019-01-21T16:53:19.674Z,24.60
2019-01-21T16:55:30.487Z,26.67
2019-01-21T16:57:41.387Z,23.13
2019-01-21T16:59:52.227Z,26.03
2019-01-21T17:04:55.420Z,25.63
2019-01-21T17:07:06.303Z,24.67
2019-01-21T17:09:17.161Z,24.77
2019-01-21T17:11:27.995Z,28.90
2019-01-21T17:13:38.829Z,26.00
2019-01-21T17:15:49.668Z,24.87
2019-01-21T17:18:00.498Z,24.90
2019-01-21T17:20:53.006Z,25.27
2019-01-21T17:23:03.814Z,26.07
2019-01-21T17:25:14.774Z,25.33
2019-01-21T17:27:25.640Z,23.77
2019-01-21T17:29:36.553Z,27.10
2019-01-21T17:31:47.745Z,27.00
2019-01-21T17:33:58.557Z,26.27
2019-01-21T17:36:09.393Z,26.83
2019-01-21T17:38:20.239Z,28.47
2019-01-21T17:40:31.155Z,27.40
2019-01-21T17:42:42.009Z,27.37
2019-01-21T17:44:52.923Z,25.53
2019-01-21T17:47:03.895Z,27.83
2019-01-21T17:49:14.772Z,27.67
2019-01-21T17:51:25.721Z,25.67
2019-01-21T17:53:36.546Z,25.63
2019-01-21T17:55:47.371Z,25.87
2019-01-21T17:57:58.285Z,27.23
2019-01-21T18:00:50.913Z,30.87
2019-01-21T18:03:01.864Z,29.53
2019-01-21T18:05:12.712Z,29.20
2019-01-21T18:07:23.639Z,29.80
2019-01-21T18:09:34.454Z,25.77
2019-01-21T18:11:45.263Z,27.53
2019-01-21T18:13:56.129Z,28.67
2019-01-21T18:16:06.936Z,26.90
2019-01-21T18:18:17.885Z,28.97
2019-01-21T18:20:28.695Z,25.93
2019-01-21T18:22:39.726Z,28.10
2019-01-21T18:24:50.542Z,28.27
2019-01-21T18:27:01.428Z,26.90
2019-01-21T18:29:12.345Z,28.17
2019-01-21T18:31:23.181Z,28.83
2019-01-21T18:33:34.193Z,28.50
2019-01-21T18:35:45.044Z,28.23
2019-01-21T18:38:37.563Z,26.40
2019-01-21T18:40:48.385Z,27.37
2019-01-21T18:42:59.343Z,28.50
2019-01-21T18:45:51.778Z,27.50
2019-01-21T18:48:02.937Z,29.73
2019-01-21T18:50:13.875Z,29.57
2019-01-21T18:52:24.699Z,28.93
2019-01-21T18:54:57.299Z,28.70
2019-01-21T18:57:08.212Z,29.57
2019-01-21T18:59:19.222Z,29.40
2019-01-21T19:01:30.074Z,31.23
2019-01-21T19:03:41.022Z,28.60
2019-01-21T19:05:51.902Z,27.93
2019-01-21T19:08:02.920Z,27.13
2019-01-21T19:10:56.436Z,26.03
2019-01-21T19:13:07.238Z,27.53
2019-01-21T19:15:59.813Z,26.43
2019-01-21T19:18:10.763Z,27.10
2019-01-21T19:20:21.679Z,27.53
2019-01-21T19:22:32.501Z,27.63
2019-01-21T19:24:43.362Z,29.10
2019-01-21T19:26:54.271Z,27.67
2019-01-21T19:29:05.089Z,29.80
2019-01-21T19:31:16.020Z,29.77
2019-01-21T19:33:26.838Z,27.67
2019-01-21T19:35:37.694Z,30.60
2019-01-21T19:37:48.623Z,29.73
2019-01-21T19:39:59.442Z,27.80
2019-01-21T19:42:10.330Z,28.73
2019-01-21T19:44:21.165Z,28.57
2019-01-21T19:46:32.035Z,27.37
2019-01-21T19:48:42.868Z,28.03
2019-01-21T19:53:10.968Z,27.67
2019-01-21T19:55:43.646Z,29.10
2019-01-21T19:57:54.452Z,32.63
2019-01-21T20:00:25.140Z,30.30
2019-01-21T20:02:36.144Z,28.53
2019-01-21T20:04:47.039Z,28.07
2019-01-21T20:06:57.889Z,28.60
2019-01-21T20:09:08.811Z,30.40
2019-01-21T20:11:19.764Z,27.97
2019-01-21T20:13:30.618Z,28.53
2019-01-21T20:15:41.435Z,28.43
2019-01-21T20:17:52.554Z,28.23
2019-01-21T20:20:25.176Z,28.23
2019-01-21T20:22:36.093Z,27.07
2019-01-21T20:24:46.929Z,28.57
2019-01-21T20:26:57.885Z,27.30
2019-01-21T20:29:08.726Z,25.83
2019-01-21T20:31:19.566Z,27.13
2019-01-21T20:38:04.856Z,28.10
2019-01-21T20:40:35.552Z,28.20
2019-01-21T20:42:46.515Z,28.77
2019-01-21T20:44:57.374Z,28.03
2019-01-21T20:47:08.318Z,26.43
2019-01-21T20:49:19.146Z,28.13
2019-01-21T20:51:29.966Z,27.47
2019-01-21T20:55:58.175Z,25.53
2019-01-21T20:58:09.590Z,27.83
2019-01-21T21:01:02.066Z,28.30
2019-01-21T21:03:13.082Z,29.00
2019-01-21T21:05:24.115Z,29.37
2019-01-21T21:07:34.913Z,30.90
2019-01-21T21:14:19.436Z,28.77
2019-01-21T21:16:30.249Z,27.37
2019-01-21T21:18:41.194Z,30.00
2019-01-21T21:20:51.980Z,30.70
2019-01-21T21:23:02.925Z,32.90
2019-01-21T21:25:55.485Z,32.80
2019-01-21T21:28:06.456Z,31.27
2019-01-21T21:30:39.131Z,31.07
2019-01-21T21:32:50.377Z,30.80
2019-01-21T21:35:01.356Z,28.97
2019-01-21T21:37:12.232Z,28.77
2019-01-21T21:39:23.058Z,26.60
2019-01-21T21:41:34.200Z,26.13
2019-01-21T21:43:45.011Z,25.83
2019-01-21T21:45:56.027Z,24.33
2019-01-21T21:48:06.914Z,27.80
2019-01-21T21:50:37.694Z,27.37
2019-01-21T21:52:48.573Z,26.97
2019-01-21T21:54:59.401Z,29.47
2019-01-21T21:57:10.218Z,27.27
2019-01-21T21:59:21.036Z,26.67
2019-01-21T22:01:32.016Z,29.00
2019-01-21T22:03:56.415Z,28.10
2019-01-21T22:06:07.287Z,28.73
2019-01-21T22:08:18.068Z,26.60
2019-01-21T22:10:29.009Z,27.10
2019-01-21T22:16:00.176Z,25.93
2019-01-21T22:18:11.283Z,27.23
2019-01-21T22:21:03.816Z,26.90
2019-01-21T22:23:14.632Z,27.10
2019-01-21T22:25:25.446Z,28.67
2019-01-21T22:27:36.380Z,28.10
2019-01-21T22:29:47.217Z,29.13
2019-01-21T22:31:58.085Z,27.50
2019-01-21T22:34:08.911Z,27.80
2019-01-21T22:36:21.667Z,26.07
2019-01-21T22:38:32.490Z,27.73
2019-01-21T22:40:43.331Z,27.00
2019-01-21T22:42:54.157Z,27.07
2019-01-21T22:45:46.612Z,25.50
2019-01-21T22:47:57.458Z,26.77
2019-01-21T22:50:49.913Z,26.83
2019-01-21T22:53:00.748Z,27.40
2019-01-21T22:55:53.202Z,27.00
2019-01-21T22:58:04.147Z,26.37
2019-01-21T23:00:56.640Z,26.83
2019-01-21T23:03:21.341Z,26.37
2019-01-21T23:05:32.154Z,27.57
2019-01-21T23:07:43.000Z,27.10
2019-01-21T23:09:53.797Z,27.53
2019-01-21T23:12:04.813Z,29.37
2019-01-21T23:14:15.653Z,32.07
2019-01-21T23:16:26.468Z,29.90
2019-01-21T23:18:37.279Z,28.63
2019-01-21T23:20:48.102Z,27.80
2019-01-21T23:22:58.919Z,28.63
2019-01-21T23:25:09.844Z,26.43
2019-01-21T23:27:22.544Z,28.10
2019-01-21T23:29:33.355Z,28.77
2019-01-21T23:31:44.157Z,29.17
2019-01-21T23:33:54.983Z,29.50
2019-01-21T23:36:05.882Z,29.50
2019-01-21T23:38:16.814Z,26.47
2019-01-21T23:40:27.614Z,28.97
2019-01-21T23:42:38.509Z,28.63
2019-01-21T23:44:49.321Z,29.67
2019-01-21T23:47:00.235Z,27.20
2019-01-21T23:49:11.155Z,28.87
2019-01-21T23:51:21.965Z,28.03
2019-01-21T23:53:34.677Z,27.87
2019-01-21T23:55:47.522Z,29.97
2019-01-21T23:57:58.314Z,27.67
